Quimperlé, Foret de Toulfoen (29) - H

Date : 02/11/2012
Distance : 3,000 km

Place Nom Licence Catégorie Club Temps min/km CN à J-60 Points Différence Nouveau CN
1 CROCHET Gerard 2817 H70 1705PC 0:47:34 15'51 4119 4338 +219 4253
2 LARMINACH Andre 646 H70 3308AQ 0:48:07 16'02 3947 4288 +341 4087
3 SIMONET Jean 930 H70 7707IF 0:48:28 16'09 4379 4257 -122 4414
4 DEVILLE Nelly 2401 D60 5402LO 0:49:03 16'21 4387 4207 -180 4314
5 DUBROCA Monique 633 D65 3308AQ 0:50:13 16'44 4352 4109 -243 4330
6 CHALOPIN Catherine 3674 D60 2105BO 0:53:17 17'45 3783 3872 +89 3781
7 BRUNEL Marie-Jo 8761 D60 8903BO 0:53:59 17'59 3473 3822 +349 3473
8 BLASCO Nicole 395 D65 2406AQ 0:55:10 18'23 3705 3740 +35 3578
9 BLASCO Serge 396 H70 2406AQ 0:56:02 18'40 3642 3682 +40 3737
10 RICHARD Nicole 14245 D60 0207PI 0:59:25 19'48 3374 3473 +99 3197
11 EUZEN J-Paul 16403 H70 6911RA 1:00:46 20'15 2652 3395 +743 3725
12 DIEUDONNE Madeleine 1380 D65 7808IF 1:03:08 21'02 3850 3268 -582 3953
13 COULON Annick 10073 D60 0615AZ 1:04:11 21'23 3621 3215 -406 3247
14 LABROUSSE J-Pierre 1563 H70 6413AQ 1:04:13 21'24 3726 3213 -513 3492
15 VOGT Christiane 2557 D65 6709AL 1:04:48 21'36 3661 3184 -477 3557
16 ANTOINE Regis 1276 H70 7108BO 1:05:33 21'51 3643 3148 -495 3556
17 COLLETER J-Claude 1264 H70 1705PC 1:05:45 21'55 2545 3138 +593 3288
18 DRAULT J-Raymond 4234 H70 8702LI 1:06:04 22'01 2824 3123 +299 2886
19 LABEUR Roselyne 905 D60 7707IF 1:06:44 22'14 3836 3092 -744 3632
20 GRAIN Nathalie 24640 D45 2704NM 1:07:31 22'30 2188 3056 +868 3018
21 OUDIN M-Reine 7574 D60 6804AL 1:07:44 22'34 3312 3046 -266 3316
22 BEGU Aurore 9042 D40 7707IF 1:08:20 22'46 3118 3020 -98 3010
23 MERIGUET Valérie 16687 D40 7807IF 1:08:38 22'52 3116 3006 -110 3095
24 PROST Daniel 2181 H70 9307IF 1:08:56 22'58 2995 2993 -2 3015
25 PICARD Pascale 23216 D45 2704NM 1:09:11 23'03 2331 2982 +651 2682
26 LECOYER Annick 2885 D60 0207PI 1:11:57 23'59 2890 2868 -22 2840
27 RICKARD Michael 16976 H70 3308AQ 1:12:00 24'00 2875 2866 -9 2932
28 BERGER M-Jose 7182 D60 5703LO 1:12:14 24'04 3892 2856 -1036 3433
29 COUPEY Guy 5118 H70 2704NM 1:13:34 24'31 2494 2805 +311 2807
30 GARROS Jocelyne 1298 D60 6408AQ 1:16:55 25'38 2890 2683 -207 2601
31 BROUILLET Frédérique 19875 D45 1705PC 1:17:39 25'53 3164 2657 -507 3034
32 POGU Paulette 4671 D60 5402LO 1:18:32 26'10 3186 2627 -559 2953
33 RABALLARD Emmanuelle 22062 D40 8607PC 1:24:26 28'08 1527 2444 +917 2157
34 MONTANARI Colette 2533 D60 5703LO 1:24:44 28'14 3527 2435 -1092 3159
35 MOULIERE M-Bernadette 2888 D65 0207PI 1:25:18 28'26 3476 2419 -1057 3393
36 PROST Gisele 2182 D60 9307IF 1:29:26 29'48 2769 2307 -462 2607
37 KIEFFER Mireille 2680 D65 2101BO 1:33:39 31'13 2636 2203 -433 2519
38 LUDEWIG-JAMES Carol 15894 D70 5907NO 1:35:39 31'53 2136 2157 +21 2178
39 BLUM Sylvain 13672 H55 5116CA 1:36:34 32'11 2511 2137 -374 2583
40 LEBIAN-DEROME Annie 8121 D65 9502IF 1:45:06 35'02 2319 1963 -356 2305
41 BASTIEN-FATH Nicole 8954 D65 5402LO 1:52:44 37'34 2352 1830 -522 2204
42 SERRE Francine 3429 D45 5907NO 1:57:08 39'02 1733 1762 +29 2374
QUEYROI Yvette 14021 D50 3308AQ abandon None 1993 0 1715
RIOFFRAY Jacqueline 25 D60 4204RA pm None 1603 0 1743